createdAt,value
2018-09-03T00:01:10.982Z,15.70
2018-09-03T00:03:40.924Z,15.70
2018-09-03T00:06:12.060Z,15.70
2018-09-03T00:08:41.278Z,15.70
2018-09-03T00:11:10.479Z,15.80
2018-09-03T00:13:39.726Z,15.80
2018-09-03T00:16:12.882Z,15.70
2018-09-03T00:18:42.053Z,15.80
2018-09-03T00:21:21.356Z,15.70
2018-09-03T00:23:50.604Z,15.70
2018-09-03T00:26:19.995Z,15.70
2018-09-03T00:28:49.229Z,15.70
2018-09-03T00:31:23.690Z,15.70
2018-09-03T00:33:58.270Z,15.70
2018-09-03T00:38:41.430Z,15.70
2018-09-03T00:41:15.881Z,15.70
2018-09-03T00:43:50.495Z,15.60
2018-09-03T00:46:25.116Z,15.60
2018-09-03T00:48:54.380Z,15.60
2018-09-03T00:51:23.636Z,15.70
2018-09-03T00:53:52.871Z,15.60
2018-09-03T00:56:27.222Z,15.60
2018-09-03T00:58:56.562Z,15.70
2018-09-03T01:01:27.846Z,15.70
2018-09-03T01:03:57.390Z,15.70
2018-09-03T01:06:27.010Z,15.70
2018-09-03T01:08:56.266Z,15.70
2018-09-03T01:11:26.314Z,15.70
2018-09-03T01:13:56.431Z,15.80
2018-09-03T01:16:33.874Z,15.80
2018-09-03T01:19:04.247Z,15.80
2018-09-03T01:21:33.504Z,15.80
2018-09-03T01:24:02.721Z,15.80
2018-09-03T01:26:33.344Z,15.80
2018-09-03T01:29:02.718Z,15.80
2018-09-03T01:31:31.986Z,15.80
2018-09-03T01:34:01.247Z,15.80
2018-09-03T01:36:32.769Z,15.80
2018-09-03T01:39:02.858Z,15.80
2018-09-03T01:41:33.108Z,15.80
2018-09-03T01:44:02.393Z,15.80
2018-09-03T01:46:34.285Z,15.80
2018-09-03T01:49:03.496Z,15.80
2018-09-03T01:51:33.034Z,15.80
2018-09-03T01:54:02.272Z,15.80
2018-09-03T01:56:36.318Z,15.80
2018-09-03T01:59:05.599Z,15.80
2018-09-03T02:01:35.923Z,15.90
2018-09-03T02:04:05.131Z,15.90
2018-09-03T02:06:36.586Z,15.90
2018-09-03T02:09:09.559Z,15.90
2018-09-03T02:11:39.032Z,15.90
2018-09-03T02:14:08.223Z,15.90
2018-09-03T02:16:43.270Z,15.90
2018-09-03T02:19:12.567Z,15.90
2018-09-03T02:21:42.081Z,15.80
2018-09-03T02:24:11.862Z,15.80
2018-09-03T02:26:43.605Z,15.70
2018-09-03T02:29:12.802Z,15.70
2018-09-03T02:31:42.081Z,15.70
2018-09-03T02:34:11.330Z,15.80
2018-09-03T02:36:44.901Z,15.80
2018-09-03T02:39:14.218Z,15.80
2018-09-03T02:41:43.529Z,15.80
2018-09-03T02:44:12.835Z,15.90
2018-09-03T02:46:42.246Z,15.90
2018-09-03T02:49:11.444Z,15.80
2018-09-03T02:51:40.983Z,15.80
2018-09-03T02:54:10.190Z,15.80
2018-09-03T02:56:41.628Z,15.80
2018-09-03T02:59:10.904Z,15.80
2018-09-03T03:01:40.153Z,15.80
2018-09-03T03:04:09.392Z,15.80
2018-09-03T03:06:39.112Z,15.80
2018-09-03T03:09:09.319Z,15.80
2018-09-03T03:11:39.262Z,15.70
2018-09-03T03:14:08.849Z,15.70
2018-09-03T03:16:39.283Z,15.70
2018-09-03T03:19:08.534Z,15.80
2018-09-03T03:21:37.772Z,15.80
2018-09-03T03:24:06.979Z,15.80
2018-09-03T03:26:37.353Z,15.80
2018-09-03T03:29:06.527Z,15.80
2018-09-03T03:31:35.723Z,15.90
2018-09-03T03:34:05.490Z,15.90
2018-09-03T03:36:34.853Z,15.90
2018-09-03T03:39:04.752Z,15.90
2018-09-03T03:41:33.953Z,15.90
2018-09-03T03:44:03.273Z,16.00
2018-09-03T03:46:45.268Z,16.00
2018-09-03T03:49:14.844Z,15.90
2018-09-03T03:51:56.311Z,15.90
2018-09-03T03:54:25.691Z,15.90
2018-09-03T03:56:55.068Z,15.90
2018-09-03T03:59:24.215Z,15.90
2018-09-03T04:01:53.436Z,15.90
2018-09-03T04:04:22.662Z,15.90
2018-09-03T04:06:56.624Z,15.90
2018-09-03T04:09:25.821Z,15.90
2018-09-03T04:11:55.596Z,15.90
2018-09-03T04:14:24.841Z,15.80
2018-09-03T04:16:54.199Z,15.80
2018-09-03T04:19:23.409Z,15.70
2018-09-03T04:21:52.551Z,15.70
2018-09-03T04:24:31.059Z,15.70
2018-09-03T04:27:10.258Z,15.70
2018-09-03T04:29:39.990Z,15.70
2018-09-03T04:32:09.620Z,15.70
2018-09-03T04:34:38.837Z,15.80
2018-09-03T04:37:08.083Z,15.80
2018-09-03T04:39:37.266Z,15.80
2018-09-03T04:42:07.229Z,15.80
2018-09-03T04:44:36.626Z,15.70
2018-09-03T04:47:10.263Z,15.80
2018-09-03T04:49:44.039Z,15.80
2018-09-03T04:52:15.540Z,15.70
2018-09-03T04:54:44.844Z,15.70
2018-09-03T04:57:14.254Z,15.70
2018-09-03T04:59:43.730Z,15.70
2018-09-03T05:02:15.562Z,15.60
2018-09-03T05:04:44.970Z,15.70
2018-09-03T05:07:14.468Z,15.70
2018-09-03T05:09:43.650Z,15.70
2018-09-03T05:12:12.857Z,15.60
2018-09-03T05:14:42.086Z,15.60
2018-09-03T05:17:17.525Z,15.60
2018-09-03T05:19:46.757Z,15.60
2018-09-03T05:22:16.370Z,15.60
2018-09-03T05:24:45.579Z,15.60
2018-09-03T05:27:15.229Z,15.70
2018-09-03T05:29:46.279Z,15.70
2018-09-03T05:32:18.879Z,15.80
2018-09-03T05:34:50.321Z,15.80
2018-09-03T05:37:19.735Z,15.80
2018-09-03T05:39:48.980Z,15.80
2018-09-03T05:42:19.571Z,15.80
2018-09-03T05:44:48.848Z,15.80
2018-09-03T05:47:20.390Z,15.80
2018-09-03T05:49:49.610Z,15.80
2018-09-03T05:52:18.837Z,15.70
2018-09-03T05:54:48.067Z,15.70
2018-09-03T05:57:17.411Z,15.70
2018-09-03T05:59:46.633Z,15.80
2018-09-03T06:02:16.967Z,15.90
2018-09-03T06:04:46.288Z,16.00
2018-09-03T06:07:15.618Z,16.00
2018-09-03T06:09:44.822Z,16.00
2018-09-03T06:12:14.027Z,16.00
2018-09-03T06:14:43.242Z,15.90
2018-09-03T06:17:14.005Z,15.90
2018-09-03T06:19:43.216Z,15.90
2018-09-03T06:22:12.434Z,16.00
2018-09-03T06:24:41.667Z,16.10
2018-09-03T06:27:11.149Z,16.20
2018-09-03T06:29:40.363Z,16.10
2018-09-03T06:32:10.313Z,16.10
2018-09-03T06:34:39.575Z,16.10
2018-09-03T06:37:08.876Z,16.10
2018-09-03T06:39:38.190Z,16.10
2018-09-03T06:42:07.753Z,16.20
2018-09-03T06:44:36.930Z,16.30
2018-09-03T06:47:08.187Z,16.30
2018-09-03T06:49:37.432Z,16.40
2018-09-03T06:52:43.542Z,16.40
2018-09-03T06:55:12.873Z,16.60
2018-09-03T06:57:42.038Z,16.70
2018-09-03T07:00:11.338Z,16.80
2018-09-03T07:02:41.739Z,16.90
2018-09-03T07:05:11.496Z,16.90
2018-09-03T07:07:40.737Z,16.90
2018-09-03T07:10:10.557Z,17.00
2018-09-03T07:12:41.440Z,17.10
2018-09-03T07:15:11.270Z,17.40
2018-09-03T07:17:41.275Z,17.60
2018-09-03T07:20:10.505Z,17.80
2018-09-03T07:22:40.446Z,17.80
2018-09-03T07:25:10.005Z,17.70
2018-09-03T07:27:39.412Z,17.60
2018-09-03T07:30:08.686Z,17.60
2018-09-03T07:32:37.960Z,17.60
2018-09-03T07:35:07.951Z,17.50
2018-09-03T07:37:37.363Z,17.50
2018-09-03T07:40:07.347Z,17.50
2018-09-03T07:42:36.851Z,17.50
2018-09-03T07:45:06.528Z,17.50
2018-09-03T07:47:35.795Z,17.60
2018-09-03T07:50:05.263Z,17.60
2018-09-03T07:52:34.969Z,17.80
2018-09-03T07:55:04.948Z,17.80
2018-09-03T07:57:34.676Z,18.00
2018-09-03T08:00:04.382Z,18.00
2018-09-03T08:02:33.607Z,18.20
2018-09-03T08:05:03.573Z,18.40
2018-09-03T08:07:32.851Z,18.50
2018-09-03T08:10:02.552Z,18.60
2018-09-03T08:12:32.027Z,18.50
2018-09-03T08:15:01.489Z,18.60
2018-09-03T08:17:31.462Z,18.80
2018-09-03T08:20:02.223Z,19.00
2018-09-03T08:22:31.471Z,19.10
2018-09-03T08:25:00.672Z,19.10
2018-09-03T08:27:32.354Z,19.30
2018-09-03T08:30:01.788Z,19.40
2018-09-03T08:32:30.937Z,19.50
2018-09-03T08:35:01.167Z,19.60
2018-09-03T08:37:31.968Z,19.70
2018-09-03T08:40:01.784Z,19.80
2018-09-03T08:42:31.077Z,19.70
2018-09-03T08:45:01.881Z,19.70
2018-09-03T08:47:32.993Z,19.80
2018-09-03T08:50:02.675Z,19.90
2018-09-03T08:52:32.788Z,20.10
2018-09-03T08:55:02.201Z,20.30
2018-09-03T08:57:32.248Z,20.50
2018-09-03T09:00:03.204Z,20.60
2018-09-03T09:02:32.916Z,20.60
2018-09-03T09:05:02.370Z,20.60
2018-09-03T09:07:32.547Z,20.70
2018-09-03T09:10:03.213Z,20.80
2018-09-03T09:12:33.782Z,20.70
2018-09-03T09:15:03.339Z,20.60
2018-09-03T09:17:33.091Z,20.60
2018-09-03T09:20:03.020Z,20.30
2018-09-03T09:22:33.053Z,20.30
2018-09-03T09:25:02.480Z,20.30
2018-09-03T09:27:32.935Z,20.30
2018-09-03T09:30:03.386Z,20.40
2018-09-03T09:32:32.824Z,20.50
2018-09-03T09:35:02.592Z,20.70
2018-09-03T09:37:34.833Z,20.80
2018-09-03T09:40:07.952Z,20.90
2018-09-03T09:42:40.604Z,21.00
2018-09-03T09:45:11.606Z,21.10
2018-09-03T09:47:43.440Z,21.00
2018-09-03T09:50:13.953Z,21.00
2018-09-03T09:52:43.485Z,21.00
2018-09-03T09:55:13.874Z,21.00
2018-09-03T09:57:43.332Z,21.10
2018-09-03T10:00:17.658Z,21.10
2018-09-03T10:02:47.870Z,21.10
2018-09-03T10:05:19.151Z,21.20
2018-09-03T10:07:49.598Z,21.30
2018-09-03T10:10:19.757Z,21.30
2018-09-03T10:12:53.706Z,21.20
2018-09-03T10:15:25.387Z,21.20
2018-09-03T10:17:55.115Z,21.10
2018-09-03T10:20:24.493Z,21.00
2018-09-03T10:22:56.025Z,20.90
2018-09-03T10:25:32.884Z,20.70
2018-09-03T10:28:02.469Z,20.50
2018-09-03T10:30:32.167Z,20.30
2018-09-03T10:33:01.706Z,20.10
2018-09-03T10:35:35.250Z,20.10
2018-09-03T10:38:18.660Z,20.10
2018-09-03T10:40:48.749Z,20.00
2018-09-03T10:43:18.376Z,20.20
2018-09-03T10:45:47.874Z,20.30
2018-09-03T10:48:18.051Z,20.40
2018-09-03T10:50:47.527Z,20.40
2018-09-03T10:53:16.916Z,20.40
2018-09-03T10:55:47.430Z,20.40
2018-09-03T10:58:17.768Z,20.40
2018-09-03T11:00:48.017Z,20.60
2018-09-03T11:03:17.782Z,20.80
2018-09-03T11:05:47.200Z,20.90
2018-09-03T11:08:18.847Z,21.00
2018-09-03T11:10:48.404Z,21.10
2018-09-03T11:13:17.848Z,21.30
2018-09-03T11:15:47.425Z,21.30
2018-09-03T11:18:16.751Z,21.50
2018-09-03T11:20:46.179Z,21.70
2018-09-03T11:23:15.480Z,21.60
2018-09-03T11:25:45.266Z,21.60
2018-09-03T11:28:14.976Z,21.50
2018-09-03T11:30:44.327Z,21.50
2018-09-03T11:33:13.623Z,21.60
2018-09-03T11:35:46.809Z,21.80
2018-09-03T11:38:16.633Z,21.90
2018-09-03T11:40:46.112Z,22.10
2018-09-03T11:43:15.574Z,22.20
2018-09-03T11:45:46.055Z,22.30
2018-09-03T11:48:15.878Z,22.40
2018-09-03T11:50:46.649Z,22.50
2018-09-03T11:53:16.589Z,22.60
2018-09-03T11:55:50.624Z,22.70
2018-09-03T11:58:20.322Z,22.70
2018-09-03T12:00:53.117Z,22.80
2018-09-03T12:03:22.961Z,22.60
2018-09-03T12:05:55.020Z,22.40
2018-09-03T12:08:25.192Z,22.30
2018-09-03T12:10:55.008Z,22.20
2018-09-03T12:13:24.515Z,22.30
2018-09-03T12:16:14.447Z,22.30
2018-09-03T12:18:46.970Z,22.20
2018-09-03T12:21:16.930Z,22.20
2018-09-03T12:23:47.366Z,22.30
2018-09-03T12:26:18.510Z,22.30
2018-09-03T12:28:53.880Z,22.20
2018-09-03T12:31:24.406Z,22.20
2018-09-03T12:33:55.264Z,22.30
2018-09-03T12:36:26.320Z,22.30
2018-09-03T12:39:02.045Z,22.20
2018-09-03T12:41:32.272Z,22.30
2018-09-03T12:44:08.152Z,22.10
2018-09-03T12:49:20.274Z,21.90
2018-09-03T12:51:52.780Z,22.10
2018-09-03T12:54:29.688Z,22.20
2018-09-03T12:57:04.040Z,22.20
2018-09-03T12:59:34.292Z,22.10
2018-09-03T13:02:03.925Z,22.10
2018-09-03T13:04:33.658Z,22.10
2018-09-03T13:07:04.451Z,22.00
2018-09-03T13:09:34.985Z,21.80
2018-09-03T13:12:05.357Z,21.70
2018-09-03T13:14:34.639Z,21.60
2018-09-03T13:17:04.214Z,21.50
2018-09-03T13:19:34.257Z,21.50
2018-09-03T13:22:04.053Z,21.40
2018-09-03T13:24:33.920Z,21.50
2018-09-03T13:27:03.361Z,21.50
2018-09-03T13:29:33.420Z,21.60
2018-09-03T13:32:03.227Z,21.60
2018-09-03T13:34:32.584Z,21.70
2018-09-03T13:37:03.963Z,21.90
2018-09-03T13:39:33.237Z,22.20
2018-09-03T13:42:02.477Z,22.50
2018-09-03T13:44:31.783Z,22.80
2018-09-03T13:47:01.468Z,22.90
2018-09-03T13:49:30.681Z,23.10
2018-09-03T13:51:59.893Z,23.40
2018-09-03T13:54:29.341Z,23.60
2018-09-03T13:56:58.971Z,23.70
2018-09-03T13:59:28.174Z,23.60
2018-09-03T14:01:57.388Z,23.50
2018-09-03T14:04:26.607Z,23.20
2018-09-03T14:06:56.021Z,22.90
2018-09-03T14:09:26.171Z,22.80
2018-09-03T14:11:56.506Z,22.70
2018-09-03T14:14:25.727Z,22.70
2018-09-03T14:16:57.862Z,22.70
2018-09-03T14:19:27.100Z,22.60
2018-09-03T14:21:56.810Z,22.60
2018-09-03T14:24:26.692Z,22.70
2018-09-03T14:26:56.102Z,22.80
2018-09-03T14:29:26.144Z,23.00
2018-09-03T14:31:55.352Z,23.10
2018-09-03T14:34:24.590Z,22.70
2018-09-03T14:36:53.977Z,22.60
2018-09-03T14:39:23.180Z,22.70
2018-09-03T14:41:52.659Z,22.60
2018-09-03T14:44:22.132Z,22.70
2018-09-03T14:46:51.694Z,22.50
2018-09-03T14:49:20.931Z,22.50
2018-09-03T14:51:50.138Z,22.50
2018-09-03T14:54:19.336Z,22.60
2018-09-03T14:56:48.750Z,22.70
2018-09-03T14:59:17.985Z,22.60
2018-09-03T15:01:47.156Z,22.60
2018-09-03T15:04:16.590Z,22.70
2018-09-03T15:06:46.023Z,22.60
2018-09-03T15:09:15.234Z,22.60
2018-09-03T15:11:46.160Z,22.90
2018-09-03T15:14:15.385Z,23.30
2018-09-03T15:16:45.533Z,23.60
2018-09-03T15:19:14.782Z,24.10
2018-09-03T15:21:44.093Z,24.60
2018-09-03T15:24:14.108Z,24.80
2018-09-03T15:26:43.567Z,24.60
2018-09-03T15:29:12.696Z,24.40
2018-09-03T15:31:43.510Z,24.30
2018-09-03T15:34:13.640Z,24.20
2018-09-03T15:36:43.327Z,24.00
2018-09-03T15:39:13.175Z,24.00
2018-09-03T15:41:43.347Z,24.00
2018-09-03T15:44:12.629Z,23.90
2018-09-03T15:46:41.942Z,23.70
2018-09-03T15:49:11.208Z,23.70
2018-09-03T15:51:40.490Z,23.60
2018-09-03T15:54:10.836Z,23.60
2018-09-03T15:56:40.178Z,23.20
2018-09-03T15:59:09.373Z,22.90
2018-09-03T16:01:38.900Z,22.70
2018-09-03T16:04:08.604Z,22.50
2018-09-03T16:06:38.629Z,22.40
2018-09-03T16:09:10.154Z,22.20
2018-09-03T16:11:39.595Z,22.00
2018-09-03T16:14:09.331Z,21.80
2018-09-03T16:16:38.949Z,21.60
2018-09-03T16:19:08.178Z,21.50
2018-09-03T16:21:38.104Z,21.40
2018-09-03T16:24:07.356Z,21.30
2018-09-03T16:26:36.911Z,21.20
2018-09-03T16:29:06.240Z,21.10
2018-09-03T16:31:37.979Z,20.80
2018-09-03T16:34:07.544Z,20.70
2018-09-03T16:36:38.104Z,20.30
2018-09-03T16:39:08.384Z,20.10
2018-09-03T16:41:37.995Z,19.90
2018-09-03T16:44:07.334Z,20.00
2018-09-03T16:46:36.597Z,20.10
2018-09-03T16:49:05.934Z,20.30
2018-09-03T16:51:36.096Z,20.40
2018-09-03T16:54:05.622Z,20.40
2018-09-03T16:56:35.978Z,20.40
2018-09-03T16:59:05.557Z,20.50
2018-09-03T17:01:35.356Z,20.60
2018-09-03T17:04:06.826Z,20.60
2018-09-03T17:06:37.625Z,20.70
2018-09-03T17:09:07.758Z,20.70
2018-09-03T17:11:37.469Z,20.80
2018-09-03T17:14:08.494Z,20.90
2018-09-03T17:16:39.812Z,20.90
2018-09-03T17:19:14.049Z,20.90
2018-09-03T17:21:44.172Z,20.90
2018-09-03T17:24:14.686Z,20.80
2018-09-03T17:26:45.756Z,20.70
2018-09-03T17:29:17.216Z,20.60
2018-09-03T17:31:50.214Z,20.50
2018-09-03T17:34:19.937Z,20.20
2018-09-03T17:36:56.703Z,19.90
2018-09-03T17:39:26.297Z,19.60
2018-09-03T17:41:55.800Z,19.20
2018-09-03T17:44:25.359Z,18.80
2018-09-03T17:46:55.903Z,18.50
2018-09-03T17:49:25.824Z,18.40
2018-09-03T17:51:57.495Z,18.20
2018-09-03T17:54:27.552Z,17.90
2018-09-03T17:57:00.844Z,17.70
2018-09-03T17:59:31.528Z,17.70
2018-09-03T18:02:01.411Z,17.60
2018-09-03T18:04:31.386Z,17.50
2018-09-03T18:07:04.631Z,17.50
2018-09-03T18:09:34.055Z,17.40
2018-09-03T18:12:03.752Z,17.40
2018-09-03T18:14:33.513Z,17.30
2018-09-03T18:17:18.015Z,17.30
2018-09-03T18:19:48.658Z,17.20
2018-09-03T18:22:18.168Z,17.20
2018-09-03T18:24:47.873Z,17.10
2018-09-03T18:27:17.940Z,17.10
2018-09-03T18:29:47.741Z,16.90
2018-09-03T18:32:22.979Z,16.70
2018-09-03T18:34:53.715Z,16.50
2018-09-03T18:37:23.228Z,16.50
2018-09-03T18:39:52.835Z,16.50
2018-09-03T18:42:22.390Z,16.40
2018-09-03T18:44:51.898Z,16.30
2018-09-03T18:47:26.050Z,16.10
2018-09-03T18:49:55.598Z,15.90
2018-09-03T18:52:25.275Z,16.00
2018-09-03T18:54:55.108Z,15.90
2018-09-03T18:57:26.827Z,15.80
2018-09-03T19:00:03.213Z,15.90
2018-09-03T19:02:36.143Z,15.90
2018-09-03T19:05:09.613Z,15.90
2018-09-03T19:07:40.393Z,15.90
2018-09-03T19:10:10.765Z,15.90
2018-09-03T19:12:41.747Z,15.90
2018-09-03T19:15:15.321Z,15.90
2018-09-03T19:17:44.908Z,15.90
2018-09-03T19:20:15.555Z,16.00
2018-09-03T19:22:45.227Z,15.90
2018-09-03T19:25:15.061Z,15.80
2018-09-03T19:27:49.128Z,15.70
2018-09-03T19:30:22.386Z,15.60
2018-09-03T19:32:56.352Z,15.60
2018-09-03T19:35:26.460Z,15.60
2018-09-03T19:37:57.319Z,15.50
2018-09-03T19:40:27.717Z,15.50
2018-09-03T19:42:58.336Z,15.50
2018-09-03T19:45:32.304Z,15.50
2018-09-03T19:48:02.074Z,15.40
2018-09-03T19:50:35.405Z,15.40
2018-09-03T19:53:08.015Z,15.30
2018-09-03T19:55:44.434Z,15.30
2018-09-03T19:58:15.475Z,15.20
2018-09-03T20:00:47.457Z,15.20
2018-09-03T20:03:17.275Z,15.10
2018-09-03T20:05:56.692Z,15.10
2018-09-03T20:08:34.049Z,14.90
2018-09-03T20:11:03.653Z,14.90
2018-09-03T20:13:33.102Z,14.70
2018-09-03T20:16:03.804Z,14.60
2018-09-03T20:18:33.412Z,14.60
2018-09-03T20:21:03.612Z,14.50
2018-09-03T20:23:33.414Z,14.50
2018-09-03T20:26:03.397Z,14.50
2018-09-03T20:28:33.168Z,14.60
2018-09-03T20:31:03.671Z,14.50
2018-09-03T20:33:34.480Z,14.50
2018-09-03T20:36:10.476Z,14.60
2018-09-03T20:38:40.542Z,14.60
2018-09-03T20:41:11.691Z,14.50
2018-09-03T20:43:42.160Z,14.40
2018-09-03T20:46:13.790Z,14.40
2018-09-03T20:48:43.535Z,14.40
2018-09-03T20:51:13.070Z,14.40
2018-09-03T20:53:49.196Z,14.30
2018-09-03T20:56:21.223Z,14.40
2018-09-03T20:58:51.853Z,14.50
2018-09-03T21:01:22.255Z,14.50
2018-09-03T21:03:52.031Z,14.60
2018-09-03T21:06:23.542Z,14.70
2018-09-03T21:08:53.242Z,14.70
2018-09-03T21:11:24.165Z,14.50
2018-09-03T21:13:53.984Z,14.40
2018-09-03T21:16:23.609Z,14.30
2018-09-03T21:18:55.483Z,14.20
2018-09-03T21:21:25.486Z,14.20
2018-09-03T21:23:55.487Z,14.10
2018-09-03T21:26:27.183Z,14.20
2018-09-03T21:28:58.801Z,14.10
2018-09-03T21:31:28.541Z,14.20
2018-09-03T21:33:58.276Z,14.10
2018-09-03T21:36:29.330Z,14.20
2018-09-03T21:38:59.553Z,14.20
2018-09-03T21:41:29.132Z,14.10
2018-09-03T21:43:59.308Z,14.10
2018-09-03T21:46:33.169Z,14.10
2018-09-03T21:49:03.824Z,14.10
2018-09-03T21:51:38.719Z,14.00
2018-09-03T21:54:08.599Z,14.10
2018-09-03T21:56:38.857Z,14.10
2018-09-03T21:59:09.463Z,14.00
2018-09-03T22:01:39.367Z,13.80
2018-09-03T22:04:11.755Z,13.80
2018-09-03T22:06:41.509Z,13.80
2018-09-03T22:09:12.138Z,13.70
2018-09-03T22:11:42.545Z,13.70
2018-09-03T22:14:11.982Z,13.70
2018-09-03T22:16:46.098Z,13.70
2018-09-03T22:19:15.526Z,13.60
2018-09-03T22:21:45.861Z,13.60
2018-09-03T22:24:17.061Z,13.60
2018-09-03T22:26:51.356Z,13.50
2018-09-03T22:29:21.861Z,13.60
2018-09-03T22:31:52.683Z,13.60
2018-09-03T22:34:23.316Z,13.60
2018-09-03T22:36:53.500Z,13.60
2018-09-03T22:39:23.080Z,13.60
2018-09-03T22:41:52.677Z,13.60
2018-09-03T22:44:22.587Z,13.60
2018-09-03T22:46:53.533Z,13.60
2018-09-03T22:49:23.139Z,13.50
2018-09-03T22:51:53.176Z,13.50
2018-09-03T22:54:22.654Z,13.40
2018-09-03T22:56:53.058Z,13.40
2018-09-03T22:59:22.982Z,13.40
2018-09-03T23:01:52.638Z,13.30
2018-09-03T23:04:22.224Z,13.20
2018-09-03T23:06:51.702Z,13.20
2018-09-03T23:09:23.167Z,13.00
2018-09-03T23:11:53.501Z,13.00
2018-09-03T23:14:23.454Z,13.10
2018-09-03T23:16:53.653Z,13.00
2018-09-03T23:19:23.124Z,13.00
2018-09-03T23:21:53.183Z,13.00
2018-09-03T23:24:22.622Z,13.10
2018-09-03T23:26:56.027Z,13.00
2018-09-03T23:29:26.153Z,13.00
2018-09-03T23:31:55.801Z,13.10
2018-09-03T23:34:26.174Z,13.10
2018-09-03T23:37:03.078Z,13.10
2018-09-03T23:39:32.563Z,13.10
2018-09-03T23:42:12.393Z,13.20
2018-09-03T23:44:42.265Z,13.20
2018-09-03T23:47:14.065Z,13.20
2018-09-03T23:49:44.356Z,13.10
2018-09-03T23:52:14.005Z,13.10
2018-09-03T23:54:43.986Z,13.10
2018-09-03T23:57:29.834Z,13.10
2018-09-03T23:59:59.567Z,13.00
